Aeroporto :
LOGIN :

Iscrizione | Disclaimer

   EN    FR    IT 

 










Sommario :    VFR   VFR Marginale   IFR   IFR Intensivo   IFR Molto Intensivo
Visibilità : 
Base nubi : 
>= 8 km
>= 3000ft
5 / 8 km
1000 / 3000 ft
1500m / 5 km
500 / 1000 ft
800 / 1500m
200 / 500 ft
< 800m
< 200 ft
Simboli :   Temporali  Nebbia  Neve Forte  Precipitazioni Forti  Vento > 20 kt
SIGMETs :   Varie  Temporali  Ghiacco  Turbolenza  Onda orograficha  Ceneri Vulcaniche






- Altitudine del aeroporto : 412 ft
- Codice IATA : ORE


LFOJ - Orleans

ULTIMO METAR :
  • 101030Z AUTO 03005KT 340V060 CAVOK 23/09 Q1022 NOSIG

METARs OBSOLETI :
  • 101000Z AUTO 04004KT 360V070 CAVOK 21/10 Q1022 NOSIG
  • 100930Z AUTO 04003KT 350V090 CAVOK 20/10 Q1022 NOSIG
  • 100900Z AUTO 02003KT 330V050 CAVOK 19/09 Q1022 NOSIG
  • 100830Z AUTO VRB03KT CAVOK 18/09 Q1022 NOSIG
  • 100800Z AUTO 08003KT 040V110 CAVOK 16/08 Q1022 NOSIG

TAF TAF LFOJ
Valido dal 10 a 09 ore il 11 a 09 ore UTC


100800Z 1009/1109 07005KT CAVOK



MetMap, La meteo Aeronautica in un colpo d'occhio ! - Copyright ORBIFLY Dicembre 2007 - Disclaimer

ORBIFLY MET'MAP TEAM :

Programmazione e sviluppo : Alexandra Zaïnal
Concezione : Baudouin d'Aumeries
Aiuto per la programmazione : Marc-Olivier Méhu
Supporto tecnico e logistico : Manuel Goepfert
Aiuto per la traduzione : Arnaldo La Scala

Contatto : metmap@orbifly.com




FONTI E CREDITI :

   NOAA